Volant, Pennsylvania
Current Conditions -  °F | °C
As of 6:51 AM on Wednesday 26 Nov 2014 (Local Time) from KYNG Reporting Station
Overcast Overcast  
Wind Chill: 24°   Ceiling: 11000
Heat Index: 31°   Visibility: 10mi
Dew Point: 24°   Wind: 7mph
Humidity: 76%   Direction: 20°NNE
Pressure: 30.09"   Gusts: NA
Location:  41.11°N, 80.26°W
Report Text: KYNG 261151Z 02006KT 10SM SCT024 OVC110 M01/M04 A3009 RMK AO2 SLP200 T10061044 10000 21011 58017
Loading
Personal Weather Stations






























Interactive Weather Map New forecast layout! Learn more

10-Day Weather Forecast

Advertisements
Track Severe Weather on mobile